Brilliant Moira — V7CX7 — position and weather

sailwx.info

Track history (hours):
 
Tides and Currents Weather Stations Pressure Air Temp Water Temp Dewpoint Dewpoint Depression Visibility Wind Speed Wind Dir Waves Ship Positions

Brilliant Moira

Last reported at 2018-Apr-18 23:58 UTC. Time now 2018-Apr-20 14:40 UTC.
Position N 28°43' E 032°56'.

Length 169 m; draft 5.4 m.

Type: Cargo ship. MMSI: 538005346.

Date/timePositionNaut miles runAvg speedWind from/ knotsBaromVisibWave heightAir tempDewpointWater temp
2018-Apr-18 23:58N 28°43' E 032°56'712.9
2018-Apr-18 23:25N 28°49' E 032°52'114 5.6
2018-Apr-18 02:59N 30°39' E 032°20'4 8.4
2018-Apr-18 02:29N 30°44' E 032°20'4 8.4
2018-Apr-18 02:00N 30°48' E 032°19'4 8.3
2018-Apr-18 01:30N 30°52' E 032°19'4 8.6
2018-Apr-18 01:00N 30°56' E 032°19'5 9.5
2018-Apr-18 00:30N 31°01' E 032°19'5 9.9
2018-Apr-18 00:00N 31°06' E 032°18'17 3.4
2018-Apr-17 19:11N 31°22' E 032°19'0 0.0
2018-Apr-17 18:59N 31°22' E 032°19'0 0.0
2018-Apr-17 18:29N 31°22' E 032°19'0 0.1
2018-Apr-17 18:00N 31°22' E 032°19'0 0.0
2018-Apr-17 17:27N 31°22' E 032°19'0 0.0
2018-Apr-17 17:00N 31°22' E 032°19'0 0.0
2018-Apr-17 16:30N 31°22' E 032°19'0 0.0
2018-Apr-17 16:00N 31°22' E 032°19'0 0.0
2018-Apr-17 15:30N 31°22' E 032°19'0 0.0
2018-Apr-17 14:57N 31°22' E 032°19'0 0.0
2018-Apr-17 14:30N 31°22' E 032°19'0 0.0
2018-Apr-17 14:00N 31°22' E 032°19'0 0.0
2018-Apr-17 13:30N 31°22' E 032°19'0 0.0
2018-Apr-17 13:00N 31°22' E 032°19'0 0.0
2018-Apr-17 12:30N 31°22' E 032°19'0 0.0
2018-Apr-17 11:56N 31°22' E 032°19'0 0.0
2018-Apr-17 11:26N 31°22' E 032°19'0 0.0
2018-Apr-17 10:56N 31°22' E 032°19'0 0.0
2018-Apr-17 10:29N 31°22' E 032°19'0 0.1
2018-Apr-17 10:00N 31°22' E 032°19'0 0.2
2018-Apr-17 09:28N 31°22' E 032°19'2 3.4
2018-Apr-17 09:01N 31°24' E 032°19'3 4.9
2018-Apr-17 08:30N 31°26' E 032°20'2 4.3
2018-Apr-17 08:00N 31°25' E 032°21'1 2.5
2018-Apr-17 07:31N 31°24' E 032°22'2 4.0
2018-Apr-17 07:00N 31°24' E 032°20'1 2.5
2018-Apr-17 06:30N 31°25' E 032°19'5 9.3
2018-Apr-17 06:00N 31°29' E 032°15'510.5
2018-Apr-17 05:30N 31°33' E 032°12'510.3
2018-Apr-17 05:00N 31°36' E 032°07'1010.3
2018-Apr-17 04:02N 31°43' E 031°59'010.3
2018-Apr-17 04:00N 31°44' E 031°59'610.2
2018-Apr-17 03:23N 31°48' E 031°54'4110.0
2018-Apr-16 23:16N 32°19' E 031°21'310.6
2018-Apr-16 23:00N 32°21' E 031°19'610.6
2018-Apr-16 22:27N 32°25' E 031°14'39711.1
2018-Apr-15 10:42N 37°23' E 025°55'212.1
2018-Apr-15 10:30N 37°26' E 025°54'611.7
2018-Apr-15 10:01N 37°31' E 025°52'8812.2
2018-Apr-15 02:49N 38°59' E 025°41'412.6
2018-Apr-15 02:31N 39°03' E 025°41'3612.4
2018-Apr-14 23:37N 39°38' E 025°45'512.5
2018-Apr-14 23:15N 39°43' E 025°46'312.5
2018-Apr-14 23:00N 39°46' E 025°47'1011.9
2018-Apr-14 22:08N 39°56' E 025°51'412.4
2018-Apr-14 21:51N 39°58' E 025°54'  
Track history (hours):
 
Tides and Currents Weather Stations Pressure Air Temp Water Temp Dewpoint Dewpoint Depression Visibility Wind Speed Wind Dir Waves Ship Positions

Brilliant Moira

Last reported at 2018-Apr-18 23:58 UTC. Time now 2018-Apr-20 14:40 UTC.
Position N 28°43' E 032°56'.

Length 169 m; draft 5.4 m.

Type: Cargo ship. MMSI: 538005346.

Date/timePositionNaut miles runAvg speedWind from/ knotsBaromVisibWave heightAir tempDewpointWater temp
2018-Apr-18 23:58N 28°43' E 032°56'712.9
2018-Apr-18 23:25N 28°49' E 032°52'114 5.6
2018-Apr-18 02:59N 30°39' E 032°20'4 8.4
2018-Apr-18 02:29N 30°44' E 032°20'4 8.4
2018-Apr-18 02:00N 30°48' E 032°19'4 8.3
2018-Apr-18 01:30N 30°52' E 032°19'4 8.6
2018-Apr-18 01:00N 30°56' E 032°19'5 9.5
2018-Apr-18 00:30N 31°01' E 032°19'5 9.9
2018-Apr-18 00:00N 31°06' E 032°18'17 3.4
2018-Apr-17 19:11N 31°22' E 032°19'0 0.0
2018-Apr-17 18:59N 31°22' E 032°19'0 0.0
2018-Apr-17 18:29N 31°22' E 032°19'0 0.1
2018-Apr-17 18:00N 31°22' E 032°19'0 0.0
2018-Apr-17 17:27N 31°22' E 032°19'0 0.0
2018-Apr-17 17:00N 31°22' E 032°19'0 0.0
2018-Apr-17 16:30N 31°22' E 032°19'0 0.0
2018-Apr-17 16:00N 31°22' E 032°19'0 0.0
2018-Apr-17 15:30N 31°22' E 032°19'0 0.0
2018-Apr-17 14:57N 31°22' E 032°19'0 0.0
2018-Apr-17 14:30N 31°22' E 032°19'0 0.0
2018-Apr-17 14:00N 31°22' E 032°19'0 0.0
2018-Apr-17 13:30N 31°22' E 032°19'0 0.0
2018-Apr-17 13:00N 31°22' E 032°19'0 0.0
2018-Apr-17 12:30N 31°22' E 032°19'0 0.0
2018-Apr-17 11:56N 31°22' E 032°19'0 0.0
2018-Apr-17 11:26N 31°22' E 032°19'0 0.0
2018-Apr-17 10:56N 31°22' E 032°19'0 0.0
2018-Apr-17 10:29N 31°22' E 032°19'0 0.1
2018-Apr-17 10:00N 31°22' E 032°19'0 0.2
2018-Apr-17 09:28N 31°22' E 032°19'2 3.4
2018-Apr-17 09:01N 31°24' E 032°19'3 4.9
2018-Apr-17 08:30N 31°26' E 032°20'2 4.3
2018-Apr-17 08:00N 31°25' E 032°21'1 2.5
2018-Apr-17 07:31N 31°24' E 032°22'2 4.0
2018-Apr-17 07:00N 31°24' E 032°20'1 2.5
2018-Apr-17 06:30N 31°25' E 032°19'5 9.3
2018-Apr-17 06:00N 31°29' E 032°15'510.5
2018-Apr-17 05:30N 31°33' E 032°12'510.3
2018-Apr-17 05:00N 31°36' E 032°07'1010.3
2018-Apr-17 04:02N 31°43' E 031°59'010.3
2018-Apr-17 04:00N 31°44' E 031°59'610.2
2018-Apr-17 03:23N 31°48' E 031°54'4110.0
2018-Apr-16 23:16N 32°19' E 031°21'310.6
2018-Apr-16 23:00N 32°21' E 031°19'610.6
2018-Apr-16 22:27N 32°25' E 031°14'39711.1
2018-Apr-15 10:42N 37°23' E 025°55'212.1
2018-Apr-15 10:30N 37°26' E 025°54'611.7
2018-Apr-15 10:01N 37°31' E 025°52'8812.2
2018-Apr-15 02:49N 38°59' E 025°41'412.6
2018-Apr-15 02:31N 39°03' E 025°41'3612.4
2018-Apr-14 23:37N 39°38' E 025°45'512.5
2018-Apr-14 23:15N 39°43' E 025°46'312.5
2018-Apr-14 23:00N 39°46' E 025°47'1011.9
2018-Apr-14 22:08N 39°56' E 025°51'412.4
2018-Apr-14 21:51N 39°58' E 025°54'  

Dump ship's entire track history